Los Saenz, Texas
Current Conditions -  °F | °C
As of 11:55 AM on Tuesday 21 Oct 2014 (Local Time) from KAPY Reporting Station
Broken Clouds Broken Clouds  
Wind Chill: 82°   Ceiling: 6500
Heat Index: 84°   Visibility: 10mi
Dew Point: 67°   Wind: 12mph
Humidity: 60%   Direction: 90°E
Pressure: 30"   Gusts: 16mph
Location:  26.5818°N, 98.985°W
Report Text: KAPY 211655Z AUTO 09010G14KT 10SM SCT024 SCT046 BKN065 27/19 A3000 RMK AO2 T02770193
Loading
Personal Weather Stations






























Interactive Weather Map
Tropical Storm Tracking
New forecast layout! Learn more

10-Day Weather Forecast

Advertisements
Track Severe Weather on mobile